sensor_id;sensor_type;location;lat;lon;timestamp;P1;durP1;ratioP1;P2;durP2;ratioP2
3217;SDS011;1621;49.702;8.618;2023-04-24T00:02:24;3.10;;;1.43;;
3217;SDS011;1621;49.702;8.618;2023-04-24T00:04:50;3.23;;;1.50;;
3217;SDS011;1621;49.702;8.618;2023-04-24T00:07:17;3.17;;;1.67;;
3217;SDS011;1621;49.702;8.618;2023-04-24T00:09:45;3.10;;;1.80;;
3217;SDS011;1621;49.702;8.618;2023-04-24T00:12:11;2.57;;;1.30;;
3217;SDS011;1621;49.702;8.618;2023-04-24T00:14:37;2.93;;;1.30;;
3217;SDS011;1621;49.702;8.618;2023-04-24T00:17:05;3.60;;;1.70;;
3217;SDS011;1621;49.702;8.618;2023-04-24T00:19:31;3.00;;;1.70;;
3217;SDS011;1621;49.702;8.618;2023-04-24T00:21:57;3.33;;;1.60;;
3217;SDS011;1621;49.702;8.618;2023-04-24T00:24:24;3.90;;;1.57;;
3217;SDS011;1621;49.702;8.618;2023-04-24T00:26:50;3.13;;;1.63;;
3217;SDS011;1621;49.702;8.618;2023-04-24T00:29:16;8.97;;;1.43;;
3217;SDS011;1621;49.702;8.618;2023-04-24T00:31:42;3.30;;;1.73;;
3217;SDS011;1621;49.702;8.618;2023-04-24T00:34:10;3.40;;;1.40;;
3217;SDS011;1621;49.702;8.618;2023-04-24T00:36:36;3.00;;;1.70;;
3217;SDS011;1621;49.702;8.618;2023-04-24T00:39:03;3.20;;;1.63;;
3217;SDS011;1621;49.702;8.618;2023-04-24T00:41:29;3.80;;;1.80;;
3217;SDS011;1621;49.702;8.618;2023-04-24T00:43:55;3.20;;;1.83;;
3217;SDS011;1621;49.702;8.618;2023-04-24T00:46:22;3.00;;;1.73;;
3217;SDS011;1621;49.702;8.618;2023-04-24T00:48:48;2.43;;;1.30;;
3217;SDS011;1621;49.702;8.618;2023-04-24T00:51:15;3.37;;;1.73;;
3217;SDS011;1621;49.702;8.618;2023-04-24T00:53:42;3.00;;;1.60;;
3217;SDS011;1621;49.702;8.618;2023-04-24T00:56:08;3.40;;;1.90;;
3217;SDS011;1621;49.702;8.618;2023-04-24T00:58:35;3.03;;;1.47;;
3217;SDS011;1621;49.702;8.618;2023-04-24T01:01:01;3.03;;;1.50;;
3217;SDS011;1621;49.702;8.618;2023-04-24T01:03:31;2.47;;;1.33;;
3217;SDS011;1621;49.702;8.618;2023-04-24T01:05:58;2.80;;;1.47;;
3217;SDS011;1621;49.702;8.618;2023-04-24T01:08:26;3.13;;;1.70;;
3217;SDS011;1621;49.702;8.618;2023-04-24T01:10:54;4.37;;;1.90;;
3217;SDS011;1621;49.702;8.618;2023-04-24T01:13:21;3.70;;;1.50;;
3217;SDS011;1621;49.702;8.618;2023-04-24T01:15:47;3.50;;;1.57;;
3217;SDS011;1621;49.702;8.618;2023-04-24T01:18:13;3.57;;;1.90;;
3217;SDS011;1621;49.702;8.618;2023-04-24T01:20:40;4.70;;;2.27;;
3217;SDS011;1621;49.702;8.618;2023-04-24T01:23:10;4.40;;;1.80;;
3217;SDS011;1621;49.702;8.618;2023-04-24T01:25:36;2.73;;;1.50;;
3217;SDS011;1621;49.702;8.618;2023-04-24T01:28:03;3.33;;;1.40;;
3217;SDS011;1621;49.702;8.618;2023-04-24T01:30:29;3.37;;;1.70;;
3217;SDS011;1621;49.702;8.618;2023-04-24T01:32:56;4.23;;;1.50;;
3217;SDS011;1621;49.702;8.618;2023-04-24T01:35:23;4.40;;;1.40;;
3217;SDS011;1621;49.702;8.618;2023-04-24T01:37:49;3.30;;;1.97;;
3217;SDS011;1621;49.702;8.618;2023-04-24T01:40:16;3.00;;;1.30;;
3217;SDS011;1621;49.702;8.618;2023-04-24T01:42:44;5.13;;;1.83;;
3217;SDS011;1621;49.702;8.618;2023-04-24T01:45:11;4.23;;;1.80;;
3217;SDS011;1621;49.702;8.618;2023-04-24T01:47:39;6.73;;;1.97;;
3217;SDS011;1621;49.702;8.618;2023-04-24T01:50:06;3.90;;;1.80;;
3217;SDS011;1621;49.702;8.618;2023-04-24T01:52:32;4.17;;;1.60;;
3217;SDS011;1621;49.702;8.618;2023-04-24T01:55:01;3.60;;;1.60;;
3217;SDS011;1621;49.702;8.618;2023-04-24T01:57:28;2.87;;;1.67;;
3217;SDS011;1621;49.702;8.618;2023-04-24T01:59:55;4.23;;;1.87;;
3217;SDS011;1621;49.702;8.618;2023-04-24T02:02:21;5.47;;;1.67;;
3217;SDS011;1621;49.702;8.618;2023-04-24T02:04:49;3.40;;;1.70;;
3217;SDS011;1621;49.702;8.618;2023-04-24T02:07:15;4.50;;;1.60;;
3217;SDS011;1621;49.702;8.618;2023-04-24T02:09:41;4.83;;;1.97;;
3217;SDS011;1621;49.702;8.618;2023-04-24T02:12:07;5.10;;;1.90;;
3217;SDS011;1621;49.702;8.618;2023-04-24T02:14:35;3.17;;;1.50;;
3217;SDS011;1621;49.702;8.618;2023-04-24T02:17:01;3.90;;;1.67;;
3217;SDS011;1621;49.702;8.618;2023-04-24T02:19:27;4.73;;;2.00;;
3217;SDS011;1621;49.702;8.618;2023-04-24T02:21:53;8.20;;;2.00;;
3217;SDS011;1621;49.702;8.618;2023-04-24T02:24:20;2.70;;;1.67;;
3217;SDS011;1621;49.702;8.618;2023-04-24T02:26:46;4.97;;;1.70;;
3217;SDS011;1621;49.702;8.618;2023-04-24T02:29:12;4.33;;;1.30;;
3217;SDS011;1621;49.702;8.618;2023-04-24T02:31:40;5.40;;;1.60;;
3217;SDS011;1621;49.702;8.618;2023-04-24T02:34:06;3.80;;;1.70;;
3217;SDS011;1621;49.702;8.618;2023-04-24T02:36:32;3.90;;;1.80;;
3217;SDS011;1621;49.702;8.618;2023-04-24T02:38:58;7.60;;;1.90;;
3217;SDS011;1621;49.702;8.618;2023-04-24T02:41:26;4.40;;;2.03;;
3217;SDS011;1621;49.702;8.618;2023-04-24T02:43:56;3.90;;;2.00;;
3217;SDS011;1621;49.702;8.618;2023-04-24T02:46:22;4.03;;;2.20;;
3217;SDS011;1621;49.702;8.618;2023-04-24T02:48:50;4.07;;;2.17;;
3217;SDS011;1621;49.702;8.618;2023-04-24T02:51:16;5.00;;;2.20;;
3217;SDS011;1621;49.702;8.618;2023-04-24T02:53:42;4.87;;;2.17;;
3217;SDS011;1621;49.702;8.618;2023-04-24T02:56:08;7.50;;;2.30;;
3217;SDS011;1621;49.702;8.618;2023-04-24T02:58:37;3.87;;;2.03;;
3217;SDS011;1621;49.702;8.618;2023-04-24T03:01:03;3.80;;;2.07;;
3217;SDS011;1621;49.702;8.618;2023-04-24T03:03:29;3.97;;;2.20;;
3217;SDS011;1621;49.702;8.618;2023-04-24T03:05:57;2.77;;;1.60;;
3217;SDS011;1621;49.702;8.618;2023-04-24T03:08:24;5.03;;;2.20;;
3217;SDS011;1621;49.702;8.618;2023-04-24T03:10:50;4.23;;;2.00;;
3217;SDS011;1621;49.702;8.618;2023-04-24T03:13:16;4.10;;;2.27;;
3217;SDS011;1621;49.702;8.618;2023-04-24T03:15:42;5.73;;;2.10;;
3217;SDS011;1621;49.702;8.618;2023-04-24T03:18:09;4.10;;;1.93;;
3217;SDS011;1621;49.702;8.618;2023-04-24T03:20:35;5.10;;;2.07;;
3217;SDS011;1621;49.702;8.618;2023-04-24T03:23:03;9.00;;;2.70;;
3217;SDS011;1621;49.702;8.618;2023-04-24T03:25:29;5.77;;;2.57;;
3217;SDS011;1621;49.702;8.618;2023-04-24T03:27:55;11.90;;;2.30;;
3217;SDS011;1621;49.702;8.618;2023-04-24T03:30:22;5.07;;;2.50;;
3217;SDS011;1621;49.702;8.618;2023-04-24T03:32:48;4.10;;;2.10;;
3217;SDS011;1621;49.702;8.618;2023-04-24T03:35:14;3.40;;;1.73;;
3217;SDS011;1621;49.702;8.618;2023-04-24T03:37:40;5.33;;;1.90;;
3217;SDS011;1621;49.702;8.618;2023-04-24T03:40:08;4.33;;;2.00;;
3217;SDS011;1621;49.702;8.618;2023-04-24T03:42:35;3.27;;;1.70;;
3217;SDS011;1621;49.702;8.618;2023-04-24T03:45:01;7.40;;;1.93;;
3217;SDS011;1621;49.702;8.618;2023-04-24T03:47:27;4.67;;;2.17;;
3217;SDS011;1621;49.702;8.618;2023-04-24T03:49:53;5.73;;;2.03;;
3217;SDS011;1621;49.702;8.618;2023-04-24T03:52:20;5.03;;;2.13;;
3217;SDS011;1621;49.702;8.618;2023-04-24T03:54:47;3.40;;;1.97;;
3217;SDS011;1621;49.702;8.618;2023-04-24T03:57:14;3.23;;;1.97;;
3217;SDS011;1621;49.702;8.618;2023-04-24T03:59:40;5.53;;;2.37;;
3217;SDS011;1621;49.702;8.618;2023-04-24T04:02:07;3.33;;;1.90;;
3217;SDS011;1621;49.702;8.618;2023-04-24T04:04:33;3.60;;;2.30;;
3217;SDS011;1621;49.702;8.618;2023-04-24T04:06:59;5.10;;;2.00;;
3217;SDS011;1621;49.702;8.618;2023-04-24T04:09:26;3.33;;;2.00;;
3217;SDS011;1621;49.702;8.618;2023-04-24T04:11:52;7.50;;;1.97;;
3217;SDS011;1621;49.702;8.618;2023-04-24T04:14:20;3.10;;;2.00;;
3217;SDS011;1621;49.702;8.618;2023-04-24T04:16:46;3.97;;;2.10;;
3217;SDS011;1621;49.702;8.618;2023-04-24T04:19:12;3.07;;;1.63;;
3217;SDS011;1621;49.702;8.618;2023-04-24T04:21:38;6.00;;;2.30;;
3217;SDS011;1621;49.702;8.618;2023-04-24T04:24:05;3.70;;;2.17;;
3217;SDS011;1621;49.702;8.618;2023-04-24T04:26:32;3.57;;;2.33;;
3217;SDS011;1621;49.702;8.618;2023-04-24T04:28:58;5.13;;;2.47;;
3217;SDS011;1621;49.702;8.618;2023-04-24T04:31:26;4.77;;;2.30;;
3217;SDS011;1621;49.702;8.618;2023-04-24T04:33:53;4.43;;;2.50;;
3217;SDS011;1621;49.702;8.618;2023-04-24T04:36:19;3.60;;;2.50;;
3217;SDS011;1621;49.702;8.618;2023-04-24T04:38:45;4.33;;;2.50;;
3217;SDS011;1621;49.702;8.618;2023-04-24T04:41:12;4.00;;;2.73;;
3217;SDS011;1621;49.702;8.618;2023-04-24T04:43:38;5.03;;;2.63;;
3217;SDS011;1621;49.702;8.618;2023-04-24T04:46:05;3.83;;;2.50;;
3217;SDS011;1621;49.702;8.618;2023-04-24T04:48:34;5.30;;;3.37;;
3217;SDS011;1621;49.702;8.618;2023-04-24T04:51:00;3.60;;;2.37;;
3217;SDS011;1621;49.702;8.618;2023-04-24T04:53:27;4.43;;;3.00;;
3217;SDS011;1621;49.702;8.618;2023-04-24T04:55:53;3.87;;;2.60;;
3217;SDS011;1621;49.702;8.618;2023-04-24T04:58:19;4.00;;;2.80;;
3217;SDS011;1621;49.702;8.618;2023-04-24T05:00:46;4.60;;;2.87;;
3217;SDS011;1621;49.702;8.618;2023-04-24T05:03:12;5.13;;;2.87;;
3217;SDS011;1621;49.702;8.618;2023-04-24T05:05:40;6.00;;;2.73;;
3217;SDS011;1621;49.702;8.618;2023-04-24T05:08:06;5.80;;;3.40;;
3217;SDS011;1621;49.702;8.618;2023-04-24T05:10:33;5.30;;;3.20;;
3217;SDS011;1621;49.702;8.618;2023-04-24T05:12:59;5.63;;;3.07;;
3217;SDS011;1621;49.702;8.618;2023-04-24T05:15:26;9.07;;;3.00;;
3217;SDS011;1621;49.702;8.618;2023-04-24T05:17:52;3.80;;;3.00;;
3217;SDS011;1621;49.702;8.618;2023-04-24T05:20:18;6.13;;;3.27;;
3217;SDS011;1621;49.702;8.618;2023-04-24T05:22:46;4.13;;;3.07;;
3217;SDS011;1621;49.702;8.618;2023-04-24T05:25:12;6.67;;;3.07;;
3217;SDS011;1621;49.702;8.618;2023-04-24T05:27:38;5.80;;;3.70;;
3217;SDS011;1621;49.702;8.618;2023-04-24T05:30:05;5.90;;;3.87;;
3217;SDS011;1621;49.702;8.618;2023-04-24T05:32:32;7.10;;;4.10;;
3217;SDS011;1621;49.702;8.618;2023-04-24T05:34:58;8.37;;;4.17;;
3217;SDS011;1621;49.702;8.618;2023-04-24T05:37:25;4.80;;;3.40;;
3217;SDS011;1621;49.702;8.618;2023-04-24T05:39:52;8.83;;;3.30;;
3217;SDS011;1621;49.702;8.618;2023-04-24T05:42:19;6.47;;;3.93;;
3217;SDS011;1621;49.702;8.618;2023-04-24T05:44:45;4.17;;;3.00;;
3217;SDS011;1621;49.702;8.618;2023-04-24T05:47:11;5.30;;;3.83;;
3217;SDS011;1621;49.702;8.618;2023-04-24T05:49:38;4.20;;;3.10;;
3217;SDS011;1621;49.702;8.618;2023-04-24T05:52:04;5.30;;;3.87;;
3217;SDS011;1621;49.702;8.618;2023-04-24T05:54:31;8.53;;;3.70;;
3217;SDS011;1621;49.702;8.618;2023-04-24T05:56:59;6.13;;;4.13;;
3217;SDS011;1621;49.702;8.618;2023-04-24T05:59:26;5.00;;;3.17;;
3217;SDS011;1621;49.702;8.618;2023-04-24T06:01:52;4.73;;;3.73;;
3217;SDS011;1621;49.702;8.618;2023-04-24T06:04:18;5.30;;;3.87;;
3217;SDS011;1621;49.702;8.618;2023-04-24T06:06:45;4.70;;;3.70;;
3217;SDS011;1621;49.702;8.618;2023-04-24T06:09:11;5.97;;;4.90;;
3217;SDS011;1621;49.702;8.618;2023-04-24T06:11:37;5.93;;;4.50;;
3217;SDS011;1621;49.702;8.618;2023-04-24T06:14:05;6.63;;;4.00;;
3217;SDS011;1621;49.702;8.618;2023-04-24T06:16:31;9.37;;;4.30;;
3217;SDS011;1621;49.702;8.618;2023-04-24T06:18:58;8.00;;;4.93;;
3217;SDS011;1621;49.702;8.618;2023-04-24T06:21:24;8.87;;;4.50;;
3217;SDS011;1621;49.702;8.618;2023-04-24T06:23:50;10.00;;;5.73;;
3217;SDS011;1621;49.702;8.618;2023-04-24T06:26:17;6.27;;;4.93;;
3217;SDS011;1621;49.702;8.618;2023-04-24T06:28:43;8.80;;;5.20;;
3217;SDS011;1621;49.702;8.618;2023-04-24T06:31:11;7.13;;;4.90;;
3217;SDS011;1621;49.702;8.618;2023-04-24T06:33:37;6.67;;;5.47;;
3217;SDS011;1621;49.702;8.618;2023-04-24T06:36:03;6.67;;;5.40;;
3217;SDS011;1621;49.702;8.618;2023-04-24T06:38:30;8.20;;;6.27;;
3217;SDS011;1621;49.702;8.618;2023-04-24T06:40:56;7.20;;;5.33;;
3217;SDS011;1621;49.702;8.618;2023-04-24T06:43:22;7.77;;;5.50;;
3217;SDS011;1621;49.702;8.618;2023-04-24T06:45:48;6.30;;;4.77;;
3217;SDS011;1621;49.702;8.618;2023-04-24T06:48:16;7.00;;;5.90;;
3217;SDS011;1621;49.702;8.618;2023-04-24T06:50:42;6.40;;;5.43;;
3217;SDS011;1621;49.702;8.618;2023-04-24T06:53:09;6.63;;;5.00;;
3217;SDS011;1621;49.702;8.618;2023-04-24T06:55:37;6.83;;;6.13;;
3217;SDS011;1621;49.702;8.618;2023-04-24T06:58:03;8.30;;;5.00;;
3217;SDS011;1621;49.702;8.618;2023-04-24T07:00:31;8.47;;;5.30;;
3217;SDS011;1621;49.702;8.618;2023-04-24T07:02:57;6.20;;;5.17;;
3217;SDS011;1621;49.702;8.618;2023-04-24T07:05:24;6.07;;;5.20;;
3217;SDS011;1621;49.702;8.618;2023-04-24T07:07:51;6.17;;;4.83;;
3217;SDS011;1621;49.702;8.618;2023-04-24T07:10:18;6.60;;;4.40;;
3217;SDS011;1621;49.702;8.618;2023-04-24T07:12:45;7.67;;;3.80;;
3217;SDS011;1621;49.702;8.618;2023-04-24T07:15:11;4.90;;;3.83;;
3217;SDS011;1621;49.702;8.618;2023-04-24T07:17:37;6.57;;;4.10;;
3217;SDS011;1621;49.702;8.618;2023-04-24T07:20:08;5.30;;;4.03;;
3217;SDS011;1621;49.702;8.618;2023-04-24T07:22:36;4.37;;;3.40;;
3217;SDS011;1621;49.702;8.618;2023-04-24T07:25:03;4.07;;;3.53;;
3217;SDS011;1621;49.702;8.618;2023-04-24T07:27:29;5.00;;;3.27;;
3217;SDS011;1621;49.702;8.618;2023-04-24T07:29:56;4.80;;;3.10;;
3217;SDS011;1621;49.702;8.618;2023-04-24T07:32:22;3.90;;;2.90;;
3217;SDS011;1621;49.702;8.618;2023-04-24T07:34:48;4.47;;;3.00;;
3217;SDS011;1621;49.702;8.618;2023-04-24T07:37:14;4.47;;;2.93;;
3217;SDS011;1621;49.702;8.618;2023-04-24T07:39:42;5.07;;;2.80;;
3217;SDS011;1621;49.702;8.618;2023-04-24T07:42:08;6.27;;;3.50;;
3217;SDS011;1621;49.702;8.618;2023-04-24T07:44:34;6.00;;;2.80;;
3217;SDS011;1621;49.702;8.618;2023-04-24T07:47:01;4.13;;;3.00;;
3217;SDS011;1621;49.702;8.618;2023-04-24T07:49:27;3.93;;;3.13;;
3217;SDS011;1621;49.702;8.618;2023-04-24T07:51:53;6.63;;;3.40;;
3217;SDS011;1621;49.702;8.618;2023-04-24T07:54:20;4.50;;;3.27;;
3217;SDS011;1621;49.702;8.618;2023-04-24T07:56:47;5.60;;;3.00;;
3217;SDS011;1621;49.702;8.618;2023-04-24T07:59:14;4.17;;;2.70;;
3217;SDS011;1621;49.702;8.618;2023-04-24T08:01:40;4.60;;;3.43;;
3217;SDS011;1621;49.702;8.618;2023-04-24T08:04:07;4.50;;;2.77;;
3217;SDS011;1621;49.702;8.618;2023-04-24T08:06:33;3.57;;;2.50;;
3217;SDS011;1621;49.702;8.618;2023-04-24T08:08:59;3.47;;;2.30;;
3217;SDS011;1621;49.702;8.618;2023-04-24T08:11:26;3.70;;;2.37;;
3217;SDS011;1621;49.702;8.618;2023-04-24T08:13:53;4.87;;;2.90;;
3217;SDS011;1621;49.702;8.618;2023-04-24T08:16:20;5.50;;;2.90;;
3217;SDS011;1621;49.702;8.618;2023-04-24T08:18:46;4.27;;;2.97;;
3217;SDS011;1621;49.702;8.618;2023-04-24T08:21:13;3.27;;;2.60;;
3217;SDS011;1621;49.702;8.618;2023-04-24T08:23:42;4.33;;;2.90;;
3217;SDS011;1621;49.702;8.618;2023-04-24T08:26:08;7.03;;;2.73;;
3217;SDS011;1621;49.702;8.618;2023-04-24T08:28:35;3.93;;;3.27;;
3217;SDS011;1621;49.702;8.618;2023-04-24T08:31:03;3.90;;;2.90;;
3217;SDS011;1621;49.702;8.618;2023-04-24T08:33:29;5.23;;;3.27;;
3217;SDS011;1621;49.702;8.618;2023-04-24T08:35:59;3.37;;;2.73;;
3217;SDS011;1621;49.702;8.618;2023-04-24T08:38:25;4.07;;;2.90;;
3217;SDS011;1621;49.702;8.618;2023-04-24T08:40:52;3.87;;;2.50;;
3217;SDS011;1621;49.702;8.618;2023-04-24T08:43:18;3.40;;;2.47;;
3217;SDS011;1621;49.702;8.618;2023-04-24T08:45:47;7.43;;;3.10;;
3217;SDS011;1621;49.702;8.618;2023-04-24T08:48:15;9.43;;;3.80;;
3217;SDS011;1621;49.702;8.618;2023-04-24T08:50:41;4.40;;;3.20;;
3217;SDS011;1621;49.702;8.618;2023-04-24T08:53:09;3.60;;;3.07;;
3217;SDS011;1621;49.702;8.618;2023-04-24T08:55:35;4.57;;;3.00;;
3217;SDS011;1621;49.702;8.618;2023-04-24T08:58:03;4.17;;;3.20;;
3217;SDS011;1621;49.702;8.618;2023-04-24T09:00:29;6.17;;;3.13;;
3217;SDS011;1621;49.702;8.618;2023-04-24T09:02:56;5.07;;;3.83;;
3217;SDS011;1621;49.702;8.618;2023-04-24T09:05:23;4.03;;;3.40;;
3217;SDS011;1621;49.702;8.618;2023-04-24T09:07:53;11.00;;;3.30;;
3217;SDS011;1621;49.702;8.618;2023-04-24T09:10:20;5.27;;;3.70;;
3217;SDS011;1621;49.702;8.618;2023-04-24T09:12:46;4.03;;;3.53;;
3217;SDS011;1621;49.702;8.618;2023-04-24T09:15:13;5.20;;;3.63;;
3217;SDS011;1621;49.702;8.618;2023-04-24T09:17:40;5.90;;;3.40;;
3217;SDS011;1621;49.702;8.618;2023-04-24T09:20:06;4.63;;;3.63;;
3217;SDS011;1621;49.702;8.618;2023-04-24T09:22:36;4.17;;;3.60;;
3217;SDS011;1621;49.702;8.618;2023-04-24T09:25:03;4.60;;;3.70;;
3217;SDS011;1621;49.702;8.618;2023-04-24T09:27:30;4.17;;;3.47;;
3217;SDS011;1621;49.702;8.618;2023-04-24T09:29:57;4.60;;;3.77;;
3217;SDS011;1621;49.702;8.618;2023-04-24T09:32:24;4.70;;;3.73;;
3217;SDS011;1621;49.702;8.618;2023-04-24T09:35:04;5.43;;;3.30;;
3217;SDS011;1621;49.702;8.618;2023-04-24T09:37:34;3.73;;;3.17;;
3217;SDS011;1621;49.702;8.618;2023-04-24T09:40:12;6.53;;;3.37;;
3217;SDS011;1621;49.702;8.618;2023-04-24T09:42:38;3.80;;;3.00;;
3217;SDS011;1621;49.702;8.618;2023-04-24T09:45:08;4.83;;;3.00;;
3217;SDS011;1621;49.702;8.618;2023-04-24T09:47:35;4.10;;;2.90;;
3217;SDS011;1621;49.702;8.618;2023-04-24T09:50:08;4.40;;;3.80;;
3217;SDS011;1621;49.702;8.618;2023-04-24T09:52:35;5.00;;;3.90;;
3217;SDS011;1621;49.702;8.618;2023-04-24T09:55:01;4.97;;;3.70;;
3217;SDS011;1621;49.702;8.618;2023-04-24T09:57:29;5.63;;;4.07;;
3217;SDS011;1621;49.702;8.618;2023-04-24T09:59:56;4.60;;;3.47;;
3217;SDS011;1621;49.702;8.618;2023-04-24T10:02:23;9.53;;;4.23;;
3217;SDS011;1621;49.702;8.618;2023-04-24T10:04:54;5.33;;;4.03;;
3217;SDS011;1621;49.702;8.618;2023-04-24T10:07:20;4.70;;;3.37;;
3217;SDS011;1621;49.702;8.618;2023-04-24T10:09:46;4.33;;;3.00;;
3217;SDS011;1621;49.702;8.618;2023-04-24T10:12:13;3.60;;;2.90;;
3217;SDS011;1621;49.702;8.618;2023-04-24T10:14:41;4.43;;;2.90;;
3217;SDS011;1621;49.702;8.618;2023-04-24T10:17:07;3.60;;;2.70;;
3217;SDS011;1621;49.702;8.618;2023-04-24T10:19:34;3.90;;;2.30;;
3217;SDS011;1621;49.702;8.618;2023-04-24T10:22:01;4.77;;;2.70;;
3217;SDS011;1621;49.702;8.618;2023-04-24T10:24:28;3.77;;;2.63;;
3217;SDS011;1621;49.702;8.618;2023-04-24T10:26:54;7.07;;;2.70;;
3217;SDS011;1621;49.702;8.618;2023-04-24T10:29:21;3.60;;;2.60;;
3217;SDS011;1621;49.702;8.618;2023-04-24T10:31:49;4.13;;;3.03;;
3217;SDS011;1621;49.702;8.618;2023-04-24T10:34:16;5.00;;;3.07;;
3217;SDS011;1621;49.702;8.618;2023-04-24T10:36:43;4.40;;;2.57;;
3217;SDS011;1621;49.702;8.618;2023-04-24T10:39:11;3.83;;;2.40;;
3217;SDS011;1621;49.702;8.618;2023-04-24T10:41:39;5.27;;;3.10;;
3217;SDS011;1621;49.702;8.618;2023-04-24T10:44:05;2.80;;;2.10;;
3217;SDS011;1621;49.702;8.618;2023-04-24T10:46:32;4.70;;;2.70;;
3217;SDS011;1621;49.702;8.618;2023-04-24T10:48:59;3.13;;;2.50;;
3217;SDS011;1621;49.702;8.618;2023-04-24T10:51:42;4.20;;;2.30;;
3217;SDS011;1621;49.702;8.618;2023-04-24T10:54:21;3.60;;;2.83;;
3217;SDS011;1621;49.702;8.618;2023-04-24T10:56:47;4.73;;;3.00;;
3217;SDS011;1621;49.702;8.618;2023-04-24T10:59:19;3.60;;;2.67;;
3217;SDS011;1621;49.702;8.618;2023-04-24T11:01:52;3.13;;;2.50;;
3217;SDS011;1621;49.702;8.618;2023-04-24T11:04:22;4.50;;;2.47;;
3217;SDS011;1621;49.702;8.618;2023-04-24T11:06:54;3.93;;;2.83;;
3217;SDS011;1621;49.702;8.618;2023-04-24T11:09:21;5.10;;;3.00;;
3217;SDS011;1621;49.702;8.618;2023-04-24T11:11:47;3.90;;;2.90;;
3217;SDS011;1621;49.702;8.618;2023-04-24T11:14:14;5.17;;;2.73;;
3217;SDS011;1621;49.702;8.618;2023-04-24T11:16:43;4.83;;;3.37;;
3217;SDS011;1621;49.702;8.618;2023-04-24T11:19:17;6.00;;;3.30;;
3217;SDS011;1621;49.702;8.618;2023-04-24T11:21:46;4.87;;;3.43;;
3217;SDS011;1621;49.702;8.618;2023-04-24T11:24:22;5.03;;;3.40;;
3217;SDS011;1621;49.702;8.618;2023-04-24T11:26:50;4.27;;;2.93;;
3217;SDS011;1621;49.702;8.618;2023-04-24T11:29:17;5.97;;;3.37;;
3217;SDS011;1621;49.702;8.618;2023-04-24T11:31:45;4.17;;;2.80;;
3217;SDS011;1621;49.702;8.618;2023-04-24T11:34:16;4.33;;;3.10;;
3217;SDS011;1621;49.702;8.618;2023-04-24T11:36:42;6.07;;;3.30;;
3217;SDS011;1621;49.702;8.618;2023-04-24T11:39:10;4.80;;;3.10;;
3217;SDS011;1621;49.702;8.618;2023-04-24T11:41:37;4.40;;;3.07;;
3217;SDS011;1621;49.702;8.618;2023-04-24T11:44:05;5.30;;;3.43;;
3217;SDS011;1621;49.702;8.618;2023-04-24T11:46:32;4.20;;;3.30;;
3217;SDS011;1621;49.702;8.618;2023-04-24T11:48:58;3.93;;;2.80;;
3217;SDS011;1621;49.702;8.618;2023-04-24T11:51:25;4.80;;;3.47;;
3217;SDS011;1621;49.702;8.618;2023-04-24T11:53:52;4.67;;;3.40;;
3217;SDS011;1621;49.702;8.618;2023-04-24T11:56:20;5.00;;;4.13;;
3217;SDS011;1621;49.702;8.618;2023-04-24T11:58:47;4.80;;;3.40;;
3217;SDS011;1621;49.702;8.618;2023-04-24T12:01:13;4.90;;;3.37;;
3217;SDS011;1621;49.702;8.618;2023-04-24T12:03:40;5.80;;;3.70;;
3217;SDS011;1621;49.702;8.618;2023-04-24T12:06:08;5.10;;;3.57;;
3217;SDS011;1621;49.702;8.618;2023-04-24T12:08:35;6.63;;;3.73;;
3217;SDS011;1621;49.702;8.618;2023-04-24T12:11:01;8.27;;;3.70;;
3217;SDS011;1621;49.702;8.618;2023-04-24T12:13:29;5.10;;;3.80;;
3217;SDS011;1621;49.702;8.618;2023-04-24T12:15:56;6.30;;;4.07;;
3217;SDS011;1621;49.702;8.618;2023-04-24T12:18:22;6.20;;;4.60;;
3217;SDS011;1621;49.702;8.618;2023-04-24T12:20:49;5.33;;;4.33;;
3217;SDS011;1621;49.702;8.618;2023-04-24T12:23:15;7.37;;;4.30;;
3217;SDS011;1621;49.702;8.618;2023-04-24T12:25:42;5.27;;;4.07;;
3217;SDS011;1621;49.702;8.618;2023-04-24T12:28:09;7.87;;;3.90;;
3217;SDS011;1621;49.702;8.618;2023-04-24T12:30:40;5.63;;;4.00;;
3217;SDS011;1621;49.702;8.618;2023-04-24T12:33:06;7.53;;;4.80;;
3217;SDS011;1621;49.702;8.618;2023-04-24T12:35:32;7.63;;;4.60;;
3217;SDS011;1621;49.702;8.618;2023-04-24T12:38:05;8.80;;;4.00;;
3217;SDS011;1621;49.702;8.618;2023-04-24T12:40:31;6.50;;;4.13;;
3217;SDS011;1621;49.702;8.618;2023-04-24T12:42:57;7.17;;;4.10;;
3217;SDS011;1621;49.702;8.618;2023-04-24T12:45:23;5.87;;;4.20;;
3217;SDS011;1621;49.702;8.618;2023-04-24T12:47:51;4.80;;;4.00;;
3217;SDS011;1621;49.702;8.618;2023-04-24T12:50:17;4.50;;;3.87;;
3217;SDS011;1621;49.702;8.618;2023-04-24T12:52:44;10.90;;;4.43;;
3217;SDS011;1621;49.702;8.618;2023-04-24T12:55:10;6.37;;;3.73;;
3217;SDS011;1621;49.702;8.618;2023-04-24T12:57:38;5.47;;;4.60;;
3217;SDS011;1621;49.702;8.618;2023-04-24T13:00:05;7.63;;;3.70;;
3217;SDS011;1621;49.702;8.618;2023-04-24T13:02:31;6.73;;;3.90;;
3217;SDS011;1621;49.702;8.618;2023-04-24T13:05:00;4.60;;;3.77;;
3217;SDS011;1621;49.702;8.618;2023-04-24T13:07:27;8.03;;;4.30;;
3217;SDS011;1621;49.702;8.618;2023-04-24T13:09:53;4.47;;;3.73;;
3217;SDS011;1621;49.702;8.618;2023-04-24T13:12:20;6.33;;;4.40;;
3217;SDS011;1621;49.702;8.618;2023-04-24T13:14:46;4.80;;;3.80;;
3217;SDS011;1621;49.702;8.618;2023-04-24T13:17:13;5.30;;;4.40;;
3217;SDS011;1621;49.702;8.618;2023-04-24T13:19:40;6.67;;;4.33;;
3217;SDS011;1621;49.702;8.618;2023-04-24T13:22:08;5.23;;;3.70;;
3217;SDS011;1621;49.702;8.618;2023-04-24T13:24:34;5.30;;;3.40;;
3217;SDS011;1621;49.702;8.618;2023-04-24T13:27:01;8.57;;;3.73;;
3217;SDS011;1621;49.702;8.618;2023-04-24T13:29:27;12.40;;;4.33;;
3217;SDS011;1621;49.702;8.618;2023-04-24T13:31:54;6.10;;;3.53;;
3217;SDS011;1621;49.702;8.618;2023-04-24T13:34:21;6.13;;;3.43;;
3217;SDS011;1621;49.702;8.618;2023-04-24T13:36:47;4.37;;;3.57;;
3217;SDS011;1621;49.702;8.618;2023-04-24T13:39:14;5.53;;;4.20;;
3217;SDS011;1621;49.702;8.618;2023-04-24T13:41:41;6.33;;;4.10;;
3217;SDS011;1621;49.702;8.618;2023-04-24T13:44:08;6.83;;;4.83;;
3217;SDS011;1621;49.702;8.618;2023-04-24T13:46:34;6.80;;;4.07;;
3217;SDS011;1621;49.702;8.618;2023-04-24T13:49:01;6.27;;;4.00;;
3217;SDS011;1621;49.702;8.618;2023-04-24T13:51:28;6.40;;;4.23;;
3217;SDS011;1621;49.702;8.618;2023-04-24T13:53:55;6.80;;;4.23;;
3217;SDS011;1621;49.702;8.618;2023-04-24T13:56:22;6.50;;;3.87;;
3217;SDS011;1621;49.702;8.618;2023-04-24T13:58:49;5.60;;;4.00;;
3217;SDS011;1621;49.702;8.618;2023-04-24T14:01:15;5.03;;;3.87;;
3217;SDS011;1621;49.702;8.618;2023-04-24T14:03:41;6.53;;;4.20;;
3217;SDS011;1621;49.702;8.618;2023-04-24T14:06:08;8.20;;;4.77;;
3217;SDS011;1621;49.702;8.618;2023-04-24T14:08:34;4.80;;;3.70;;
3217;SDS011;1621;49.702;8.618;2023-04-24T14:11:00;5.00;;;3.73;;
3217;SDS011;1621;49.702;8.618;2023-04-24T14:13:29;5.73;;;3.73;;
3217;SDS011;1621;49.702;8.618;2023-04-24T14:15:55;4.00;;;3.07;;
3217;SDS011;1621;49.702;8.618;2023-04-24T14:18:21;6.30;;;3.43;;
3217;SDS011;1621;49.702;8.618;2023-04-24T14:20:47;5.70;;;3.10;;
3217;SDS011;1621;49.702;8.618;2023-04-24T14:23:14;4.63;;;2.77;;
3217;SDS011;1621;49.702;8.618;2023-04-24T14:25:40;6.00;;;3.63;;
3217;SDS011;1621;49.702;8.618;2023-04-24T14:28:06;5.70;;;3.40;;
3217;SDS011;1621;49.702;8.618;2023-04-24T14:30:34;4.77;;;3.00;;
3217;SDS011;1621;49.702;8.618;2023-04-24T14:33:02;3.93;;;2.83;;
3217;SDS011;1621;49.702;8.618;2023-04-24T14:35:29;4.77;;;3.10;;
3217;SDS011;1621;49.702;8.618;2023-04-24T14:37:56;3.93;;;3.03;;
3217;SDS011;1621;49.702;8.618;2023-04-24T14:40:22;6.90;;;3.57;;
3217;SDS011;1621;49.702;8.618;2023-04-24T14:42:48;7.20;;;3.20;;
3217;SDS011;1621;49.702;8.618;2023-04-24T14:45:15;4.80;;;3.07;;
3217;SDS011;1621;49.702;8.618;2023-04-24T14:47:43;5.43;;;3.30;;
3217;SDS011;1621;49.702;8.618;2023-04-24T14:50:09;3.43;;;2.57;;
3217;SDS011;1621;49.702;8.618;2023-04-24T14:52:37;4.37;;;3.17;;
3217;SDS011;1621;49.702;8.618;2023-04-24T14:55:03;3.60;;;3.10;;
3217;SDS011;1621;49.702;8.618;2023-04-24T14:57:30;5.93;;;4.07;;
3217;SDS011;1621;49.702;8.618;2023-04-24T14:59:56;4.20;;;3.30;;
3217;SDS011;1621;49.702;8.618;2023-04-24T15:02:22;6.30;;;5.00;;
3217;SDS011;1621;49.702;8.618;2023-04-24T15:04:50;4.83;;;3.27;;
3217;SDS011;1621;49.702;8.618;2023-04-24T15:07:16;5.33;;;3.83;;
3217;SDS011;1621;49.702;8.618;2023-04-24T15:09:42;9.23;;;6.33;;
3217;SDS011;1621;49.702;8.618;2023-04-24T15:12:09;4.80;;;4.00;;
3217;SDS011;1621;49.702;8.618;2023-04-24T15:14:37;7.43;;;4.67;;